sensor_id;sensor_type;location;lat;lon;timestamp;P1;durP1;ratioP1;P2;durP2;ratioP2
6095;SDS011;25081;42.698;23.298;2023-05-23T00:01:18;15.03;;;11.30;;
6095;SDS011;25081;42.698;23.298;2023-05-23T00:03:28;13.90;;;10.50;;
6095;SDS011;25081;42.698;23.298;2023-05-23T00:05:39;13.77;;;10.23;;
6095;SDS011;25081;42.698;23.298;2023-05-23T00:07:49;14.67;;;11.27;;
6095;SDS011;25081;42.698;23.298;2023-05-23T00:10:00;14.67;;;11.10;;
6095;SDS011;25081;42.698;23.298;2023-05-23T00:12:10;15.53;;;11.30;;
6095;SDS011;25081;42.698;23.298;2023-05-23T00:14:21;14.70;;;10.93;;
6095;SDS011;25081;42.698;23.298;2023-05-23T00:16:32;16.17;;;12.10;;
6095;SDS011;25081;42.698;23.298;2023-05-23T00:18:42;16.50;;;11.27;;
6095;SDS011;25081;42.698;23.298;2023-05-23T00:20:53;12.50;;;9.67;;
6095;SDS011;25081;42.698;23.298;2023-05-23T00:23:04;12.90;;;9.77;;
6095;SDS011;25081;42.698;23.298;2023-05-23T00:25:16;11.67;;;8.77;;
6095;SDS011;25081;42.698;23.298;2023-05-23T00:27:26;12.70;;;10.27;;
6095;SDS011;25081;42.698;23.298;2023-05-23T00:29:37;11.37;;;8.03;;
6095;SDS011;25081;42.698;23.298;2023-05-23T00:31:47;11.63;;;8.97;;
6095;SDS011;25081;42.698;23.298;2023-05-23T00:33:58;12.30;;;8.87;;
6095;SDS011;25081;42.698;23.298;2023-05-23T00:36:08;12.30;;;8.90;;
6095;SDS011;25081;42.698;23.298;2023-05-23T00:38:19;13.60;;;9.73;;
6095;SDS011;25081;42.698;23.298;2023-05-23T00:40:30;12.60;;;9.07;;
6095;SDS011;25081;42.698;23.298;2023-05-23T00:42:40;13.10;;;9.40;;
6095;SDS011;25081;42.698;23.298;2023-05-23T00:44:51;13.13;;;7.97;;
6095;SDS011;25081;42.698;23.298;2023-05-23T00:47:02;12.67;;;9.03;;
6095;SDS011;25081;42.698;23.298;2023-05-23T00:49:13;13.47;;;9.60;;
6095;SDS011;25081;42.698;23.298;2023-05-23T00:51:23;11.60;;;9.80;;
6095;SDS011;25081;42.698;23.298;2023-05-23T00:53:33;11.07;;;9.10;;
6095;SDS011;25081;42.698;23.298;2023-05-23T00:55:44;16.03;;;8.80;;
6095;SDS011;25081;42.698;23.298;2023-05-23T00:57:54;11.60;;;8.40;;
6095;SDS011;25081;42.698;23.298;2023-05-23T01:00:06;14.30;;;8.50;;
6095;SDS011;25081;42.698;23.298;2023-05-23T01:02:17;13.23;;;8.57;;
6095;SDS011;25081;42.698;23.298;2023-05-23T01:04:29;12.23;;;8.60;;
6095;SDS011;25081;42.698;23.298;2023-05-23T01:06:39;10.73;;;8.90;;
6095;SDS011;25081;42.698;23.298;2023-05-23T01:08:50;11.60;;;8.90;;
6095;SDS011;25081;42.698;23.298;2023-05-23T01:11:00;11.43;;;9.10;;
6095;SDS011;25081;42.698;23.298;2023-05-23T01:13:15;17.23;;;9.10;;
6095;SDS011;25081;42.698;23.298;2023-05-23T01:15:27;11.60;;;8.57;;
6095;SDS011;25081;42.698;23.298;2023-05-23T01:17:40;14.30;;;9.70;;
6095;SDS011;25081;42.698;23.298;2023-05-23T01:20:10;15.60;;;9.40;;
6095;SDS011;25081;42.698;23.298;2023-05-23T01:22:22;14.63;;;9.40;;
6095;SDS011;25081;42.698;23.298;2023-05-23T01:24:34;12.70;;;9.10;;
6095;SDS011;25081;42.698;23.298;2023-05-23T01:26:54;13.80;;;8.93;;
6095;SDS011;25081;42.698;23.298;2023-05-23T01:29:08;16.10;;;9.47;;
6095;SDS011;25081;42.698;23.298;2023-05-23T01:31:18;12.27;;;9.10;;
6095;SDS011;25081;42.698;23.298;2023-05-23T01:33:28;14.10;;;9.33;;
6095;SDS011;25081;42.698;23.298;2023-05-23T01:35:39;15.47;;;11.03;;
6095;SDS011;25081;42.698;23.298;2023-05-23T01:37:49;12.90;;;9.40;;
6095;SDS011;25081;42.698;23.298;2023-05-23T01:40:00;12.07;;;8.70;;
6095;SDS011;25081;42.698;23.298;2023-05-23T01:42:10;12.97;;;9.93;;
6095;SDS011;25081;42.698;23.298;2023-05-23T01:44:21;15.97;;;11.10;;
6095;SDS011;25081;42.698;23.298;2023-05-23T01:46:31;10.93;;;8.70;;
6095;SDS011;25081;42.698;23.298;2023-05-23T01:48:42;11.23;;;7.73;;
6095;SDS011;25081;42.698;23.298;2023-05-23T01:50:52;11.60;;;8.57;;
6095;SDS011;25081;42.698;23.298;2023-05-23T01:53:03;10.50;;;7.90;;
6095;SDS011;25081;42.698;23.298;2023-05-23T01:55:13;10.37;;;7.63;;
6095;SDS011;25081;42.698;23.298;2023-05-23T01:57:24;9.53;;;7.67;;
6095;SDS011;25081;42.698;23.298;2023-05-23T01:59:35;9.67;;;7.60;;
6095;SDS011;25081;42.698;23.298;2023-05-23T02:01:45;10.40;;;7.40;;
6095;SDS011;25081;42.698;23.298;2023-05-23T02:03:56;10.70;;;7.57;;
6095;SDS011;25081;42.698;23.298;2023-05-23T02:06:07;12.27;;;7.57;;
6095;SDS011;25081;42.698;23.298;2023-05-23T02:08:17;11.10;;;7.47;;
6095;SDS011;25081;42.698;23.298;2023-05-23T02:10:28;10.10;;;7.67;;
6095;SDS011;25081;42.698;23.298;2023-05-23T02:12:38;11.70;;;7.97;;
6095;SDS011;25081;42.698;23.298;2023-05-23T02:14:49;9.70;;;7.90;;
6095;SDS011;25081;42.698;23.298;2023-05-23T02:17:00;13.27;;;8.30;;
6095;SDS011;25081;42.698;23.298;2023-05-23T02:19:10;10.03;;;6.70;;
6095;SDS011;25081;42.698;23.298;2023-05-23T02:21:20;13.93;;;7.83;;
6095;SDS011;25081;42.698;23.298;2023-05-23T02:23:31;11.30;;;7.00;;
6095;SDS011;25081;42.698;23.298;2023-05-23T02:25:42;10.90;;;8.77;;
6095;SDS011;25081;42.698;23.298;2023-05-23T02:27:52;11.83;;;8.50;;
6095;SDS011;25081;42.698;23.298;2023-05-23T02:30:03;12.50;;;8.17;;
6095;SDS011;25081;42.698;23.298;2023-05-23T02:32:15;11.67;;;8.23;;
6095;SDS011;25081;42.698;23.298;2023-05-23T02:34:25;11.27;;;8.17;;
6095;SDS011;25081;42.698;23.298;2023-05-23T02:36:36;10.53;;;7.30;;
6095;SDS011;25081;42.698;23.298;2023-05-23T02:38:46;10.63;;;7.90;;
6095;SDS011;25081;42.698;23.298;2023-05-23T02:40:57;11.60;;;7.27;;
6095;SDS011;25081;42.698;23.298;2023-05-23T02:43:08;11.27;;;7.53;;
6095;SDS011;25081;42.698;23.298;2023-05-23T02:45:18;11.27;;;8.07;;
6095;SDS011;25081;42.698;23.298;2023-05-23T02:47:29;12.20;;;8.50;;
6095;SDS011;25081;42.698;23.298;2023-05-23T02:49:39;9.87;;;8.03;;
6095;SDS011;25081;42.698;23.298;2023-05-23T02:51:50;11.50;;;8.30;;
6095;SDS011;25081;42.698;23.298;2023-05-23T02:54:00;11.37;;;8.10;;
6095;SDS011;25081;42.698;23.298;2023-05-23T02:56:11;13.87;;;8.70;;
6095;SDS011;25081;42.698;23.298;2023-05-23T02:58:21;15.30;;;8.57;;
6095;SDS011;25081;42.698;23.298;2023-05-23T03:00:32;11.50;;;8.90;;
6095;SDS011;25081;42.698;23.298;2023-05-23T03:02:42;12.37;;;8.83;;
6095;SDS011;25081;42.698;23.298;2023-05-23T03:04:53;15.80;;;9.20;;
6095;SDS011;25081;42.698;23.298;2023-05-23T03:07:03;12.47;;;8.63;;
6095;SDS011;25081;42.698;23.298;2023-05-23T03:09:14;13.93;;;10.00;;
6095;SDS011;25081;42.698;23.298;2023-05-23T03:11:25;18.17;;;11.00;;
6095;SDS011;25081;42.698;23.298;2023-05-23T03:13:35;18.50;;;10.87;;
6095;SDS011;25081;42.698;23.298;2023-05-23T03:15:46;19.00;;;11.63;;
6095;SDS011;25081;42.698;23.298;2023-05-23T03:17:57;16.07;;;10.83;;
6095;SDS011;25081;42.698;23.298;2023-05-23T03:20:08;15.80;;;11.27;;
6095;SDS011;25081;42.698;23.298;2023-05-23T03:22:19;18.70;;;11.27;;
6095;SDS011;25081;42.698;23.298;2023-05-23T03:24:30;17.20;;;12.13;;
6095;SDS011;25081;42.698;23.298;2023-05-23T03:26:40;19.47;;;13.23;;
6095;SDS011;25081;42.698;23.298;2023-05-23T03:28:51;17.00;;;11.20;;
6095;SDS011;25081;42.698;23.298;2023-05-23T03:31:01;18.57;;;12.30;;
6095;SDS011;25081;42.698;23.298;2023-05-23T03:33:12;18.53;;;12.20;;
6095;SDS011;25081;42.698;23.298;2023-05-23T03:35:22;19.03;;;12.13;;
6095;SDS011;25081;42.698;23.298;2023-05-23T03:37:33;17.90;;;12.33;;
6095;SDS011;25081;42.698;23.298;2023-05-23T03:39:43;19.87;;;12.77;;
6095;SDS011;25081;42.698;23.298;2023-05-23T03:41:54;23.50;;;12.40;;
6095;SDS011;25081;42.698;23.298;2023-05-23T03:44:04;25.57;;;13.13;;
6095;SDS011;25081;42.698;23.298;2023-05-23T03:46:15;18.93;;;12.07;;
6095;SDS011;25081;42.698;23.298;2023-05-23T03:48:25;18.53;;;12.90;;
6095;SDS011;25081;42.698;23.298;2023-05-23T03:50:36;20.50;;;12.63;;
6095;SDS011;25081;42.698;23.298;2023-05-23T03:52:46;19.80;;;12.43;;
6095;SDS011;25081;42.698;23.298;2023-05-23T03:54:57;24.20;;;14.70;;
6095;SDS011;25081;42.698;23.298;2023-05-23T03:57:07;23.47;;;14.40;;
6095;SDS011;25081;42.698;23.298;2023-05-23T03:59:18;30.67;;;13.93;;
6095;SDS011;25081;42.698;23.298;2023-05-23T04:01:28;26.77;;;15.07;;
6095;SDS011;25081;42.698;23.298;2023-05-23T04:03:38;25.37;;;14.33;;
6095;SDS011;25081;42.698;23.298;2023-05-23T04:05:49;31.57;;;15.43;;
6095;SDS011;25081;42.698;23.298;2023-05-23T04:07:59;29.53;;;16.00;;
6095;SDS011;25081;42.698;23.298;2023-05-23T04:10:10;22.77;;;14.20;;
6095;SDS011;25081;42.698;23.298;2023-05-23T04:12:21;24.63;;;14.93;;
6095;SDS011;25081;42.698;23.298;2023-05-23T04:14:31;23.10;;;13.87;;
6095;SDS011;25081;42.698;23.298;2023-05-23T04:16:42;27.20;;;14.20;;
6095;SDS011;25081;42.698;23.298;2023-05-23T04:18:52;22.17;;;14.10;;
6095;SDS011;25081;42.698;23.298;2023-05-23T04:21:03;21.77;;;13.23;;
6095;SDS011;25081;42.698;23.298;2023-05-23T04:23:13;21.27;;;14.00;;
6095;SDS011;25081;42.698;23.298;2023-05-23T04:25:24;28.70;;;13.33;;
6095;SDS011;25081;42.698;23.298;2023-05-23T04:27:34;18.50;;;11.80;;
6095;SDS011;25081;42.698;23.298;2023-05-23T04:29:45;19.67;;;12.30;;
6095;SDS011;25081;42.698;23.298;2023-05-23T04:31:55;18.33;;;11.73;;
6095;SDS011;25081;42.698;23.298;2023-05-23T04:34:06;16.90;;;12.47;;
6095;SDS011;25081;42.698;23.298;2023-05-23T04:36:17;19.50;;;11.03;;
6095;SDS011;25081;42.698;23.298;2023-05-23T04:38:27;19.60;;;12.93;;
6095;SDS011;25081;42.698;23.298;2023-05-23T04:40:38;18.07;;;10.97;;
6095;SDS011;25081;42.698;23.298;2023-05-23T04:42:49;16.43;;;11.20;;
6095;SDS011;25081;42.698;23.298;2023-05-23T04:44:59;13.90;;;10.27;;
6095;SDS011;25081;42.698;23.298;2023-05-23T04:47:10;17.90;;;12.23;;
6095;SDS011;25081;42.698;23.298;2023-05-23T04:49:20;18.93;;;11.40;;
6095;SDS011;25081;42.698;23.298;2023-05-23T04:51:31;16.50;;;11.20;;
6095;SDS011;25081;42.698;23.298;2023-05-23T04:53:41;14.03;;;9.90;;
6095;SDS011;25081;42.698;23.298;2023-05-23T04:55:52;18.83;;;11.23;;
6095;SDS011;25081;42.698;23.298;2023-05-23T04:58:02;17.07;;;9.90;;
6095;SDS011;25081;42.698;23.298;2023-05-23T05:00:14;18.07;;;8.97;;
6095;SDS011;25081;42.698;23.298;2023-05-23T05:02:25;17.87;;;10.17;;
6095;SDS011;25081;42.698;23.298;2023-05-23T05:04:36;14.27;;;10.60;;
6095;SDS011;25081;42.698;23.298;2023-05-23T05:06:46;13.83;;;10.07;;
6095;SDS011;25081;42.698;23.298;2023-05-23T05:08:57;17.67;;;9.23;;
6095;SDS011;25081;42.698;23.298;2023-05-23T05:11:07;14.17;;;9.80;;
6095;SDS011;25081;42.698;23.298;2023-05-23T05:13:18;17.00;;;9.97;;
6095;SDS011;25081;42.698;23.298;2023-05-23T05:15:29;13.90;;;10.17;;
6095;SDS011;25081;42.698;23.298;2023-05-23T05:17:39;21.13;;;11.23;;
6095;SDS011;25081;42.698;23.298;2023-05-23T05:19:50;15.67;;;10.47;;
6095;SDS011;25081;42.698;23.298;2023-05-23T05:22:00;15.43;;;11.17;;
6095;SDS011;25081;42.698;23.298;2023-05-23T05:24:11;22.73;;;11.10;;
6095;SDS011;25081;42.698;23.298;2023-05-23T05:26:21;18.93;;;12.00;;
6095;SDS011;25081;42.698;23.298;2023-05-23T05:28:32;20.80;;;11.63;;
6095;SDS011;25081;42.698;23.298;2023-05-23T05:30:43;18.47;;;11.67;;
6095;SDS011;25081;42.698;23.298;2023-05-23T05:32:54;20.80;;;11.40;;
6095;SDS011;25081;42.698;23.298;2023-05-23T05:35:06;18.70;;;11.23;;
6095;SDS011;25081;42.698;23.298;2023-05-23T05:37:17;19.37;;;11.47;;
6095;SDS011;25081;42.698;23.298;2023-05-23T05:39:28;18.53;;;10.70;;
6095;SDS011;25081;42.698;23.298;2023-05-23T05:41:38;14.73;;;10.80;;
6095;SDS011;25081;42.698;23.298;2023-05-23T05:43:49;21.27;;;11.80;;
6095;SDS011;25081;42.698;23.298;2023-05-23T05:45:59;16.23;;;10.70;;
6095;SDS011;25081;42.698;23.298;2023-05-23T05:48:10;20.83;;;11.47;;
6095;SDS011;25081;42.698;23.298;2023-05-23T05:50:20;17.90;;;12.40;;
6095;SDS011;25081;42.698;23.298;2023-05-23T05:52:31;22.73;;;12.47;;
6095;SDS011;25081;42.698;23.298;2023-05-23T05:54:42;17.83;;;12.50;;
6095;SDS011;25081;42.698;23.298;2023-05-23T05:56:53;16.60;;;11.80;;
6095;SDS011;25081;42.698;23.298;2023-05-23T05:59:03;17.70;;;12.10;;
6095;SDS011;25081;42.698;23.298;2023-05-23T06:01:14;16.63;;;12.20;;
6095;SDS011;25081;42.698;23.298;2023-05-23T06:03:24;22.60;;;12.57;;
6095;SDS011;25081;42.698;23.298;2023-05-23T06:05:35;22.57;;;14.37;;
6095;SDS011;25081;42.698;23.298;2023-05-23T06:07:47;22.83;;;14.20;;
6095;SDS011;25081;42.698;23.298;2023-05-23T06:09:58;21.60;;;14.23;;
6095;SDS011;25081;42.698;23.298;2023-05-23T06:12:08;21.23;;;13.90;;
6095;SDS011;25081;42.698;23.298;2023-05-23T06:14:19;64.87;;;19.80;;
6095;SDS011;25081;42.698;23.298;2023-05-23T06:16:29;23.80;;;14.47;;
6095;SDS011;25081;42.698;23.298;2023-05-23T06:18:40;22.40;;;14.70;;
6095;SDS011;25081;42.698;23.298;2023-05-23T06:20:50;22.20;;;15.23;;
6095;SDS011;25081;42.698;23.298;2023-05-23T06:23:01;19.03;;;14.10;;
6095;SDS011;25081;42.698;23.298;2023-05-23T06:25:12;21.43;;;13.87;;
6095;SDS011;25081;42.698;23.298;2023-05-23T06:27:22;18.47;;;13.53;;
6095;SDS011;25081;42.698;23.298;2023-05-23T06:29:33;74.97;;;21.80;;
6095;SDS011;25081;42.698;23.298;2023-05-23T06:31:43;36.00;;;14.73;;
6095;SDS011;25081;42.698;23.298;2023-05-23T06:33:54;24.13;;;14.03;;
6095;SDS011;25081;42.698;23.298;2023-05-23T06:36:05;20.73;;;14.43;;
6095;SDS011;25081;42.698;23.298;2023-05-23T06:38:16;17.63;;;12.93;;
6095;SDS011;25081;42.698;23.298;2023-05-23T06:40:26;27.20;;;13.70;;
6095;SDS011;25081;42.698;23.298;2023-05-23T06:42:37;23.20;;;13.40;;
6095;SDS011;25081;42.698;23.298;2023-05-23T06:44:47;23.37;;;13.73;;
6095;SDS011;25081;42.698;23.298;2023-05-23T06:46:58;16.47;;;12.73;;
6095;SDS011;25081;42.698;23.298;2023-05-23T06:49:08;19.80;;;13.07;;
6095;SDS011;25081;42.698;23.298;2023-05-23T06:51:19;16.97;;;12.00;;
6095;SDS011;25081;42.698;23.298;2023-05-23T06:53:29;16.50;;;12.27;;
6095;SDS011;25081;42.698;23.298;2023-05-23T06:55:40;17.43;;;13.67;;
6095;SDS011;25081;42.698;23.298;2023-05-23T06:57:50;19.83;;;13.77;;
6095;SDS011;25081;42.698;23.298;2023-05-23T07:00:01;14.07;;;12.00;;
6095;SDS011;25081;42.698;23.298;2023-05-23T07:02:11;22.60;;;13.60;;
6095;SDS011;25081;42.698;23.298;2023-05-23T07:04:22;17.53;;;12.20;;
6095;SDS011;25081;42.698;23.298;2023-05-23T07:06:33;19.73;;;13.73;;
6095;SDS011;25081;42.698;23.298;2023-05-23T07:08:44;24.37;;;14.33;;
6095;SDS011;25081;42.698;23.298;2023-05-23T07:10:54;16.60;;;12.47;;
6095;SDS011;25081;42.698;23.298;2023-05-23T07:13:05;22.50;;;12.83;;
6095;SDS011;25081;42.698;23.298;2023-05-23T07:15:15;18.93;;;13.87;;
6095;SDS011;25081;42.698;23.298;2023-05-23T07:17:26;17.60;;;14.40;;
6095;SDS011;25081;42.698;23.298;2023-05-23T07:19:37;16.70;;;13.87;;
6095;SDS011;25081;42.698;23.298;2023-05-23T07:21:48;19.70;;;14.20;;
6095;SDS011;25081;42.698;23.298;2023-05-23T07:23:58;22.20;;;14.30;;
6095;SDS011;25081;42.698;23.298;2023-05-23T07:26:09;20.50;;;14.60;;
6095;SDS011;25081;42.698;23.298;2023-05-23T07:28:19;28.10;;;17.73;;
6095;SDS011;25081;42.698;23.298;2023-05-23T07:30:30;20.30;;;16.97;;
6095;SDS011;25081;42.698;23.298;2023-05-23T07:32:40;29.53;;;18.70;;
6095;SDS011;25081;42.698;23.298;2023-05-23T07:34:51;27.50;;;20.37;;
6095;SDS011;25081;42.698;23.298;2023-05-23T07:37:01;27.07;;;18.20;;
6095;SDS011;25081;42.698;23.298;2023-05-23T07:39:12;30.67;;;20.07;;
6095;SDS011;25081;42.698;23.298;2023-05-23T07:41:22;26.53;;;20.00;;
6095;SDS011;25081;42.698;23.298;2023-05-23T07:43:33;22.63;;;18.97;;
6095;SDS011;25081;42.698;23.298;2023-05-23T07:45:44;26.70;;;19.40;;
6095;SDS011;25081;42.698;23.298;2023-05-23T07:47:54;28.60;;;20.43;;
6095;SDS011;25081;42.698;23.298;2023-05-23T07:50:06;33.47;;;22.90;;
6095;SDS011;25081;42.698;23.298;2023-05-23T07:52:17;28.57;;;20.33;;
6095;SDS011;25081;42.698;23.298;2023-05-23T07:54:28;29.60;;;20.50;;
6095;SDS011;25081;42.698;23.298;2023-05-23T07:56:38;28.87;;;20.03;;
6095;SDS011;25081;42.698;23.298;2023-05-23T07:58:49;23.80;;;20.20;;
6095;SDS011;25081;42.698;23.298;2023-05-23T08:01:00;29.20;;;19.60;;
6095;SDS011;25081;42.698;23.298;2023-05-23T08:03:10;33.97;;;21.50;;
6095;SDS011;25081;42.698;23.298;2023-05-23T08:05:21;37.40;;;22.60;;
6095;SDS011;25081;42.698;23.298;2023-05-23T08:07:31;29.97;;;22.80;;
6095;SDS011;25081;42.698;23.298;2023-05-23T08:09:42;29.23;;;22.97;;
6095;SDS011;25081;42.698;23.298;2023-05-23T08:11:52;35.27;;;21.63;;
6095;SDS011;25081;42.698;23.298;2023-05-23T08:14:03;30.70;;;22.87;;
6095;SDS011;25081;42.698;23.298;2023-05-23T08:16:13;29.00;;;22.30;;
6095;SDS011;25081;42.698;23.298;2023-05-23T08:18:24;38.87;;;25.07;;
6095;SDS011;25081;42.698;23.298;2023-05-23T08:20:35;30.30;;;23.73;;
6095;SDS011;25081;42.698;23.298;2023-05-23T08:22:45;29.33;;;22.30;;
6095;SDS011;25081;42.698;23.298;2023-05-23T08:24:56;28.00;;;21.33;;
6095;SDS011;25081;42.698;23.298;2023-05-23T08:27:06;30.40;;;21.20;;
6095;SDS011;25081;42.698;23.298;2023-05-23T08:29:17;29.77;;;19.37;;
6095;SDS011;25081;42.698;23.298;2023-05-23T08:31:27;26.30;;;19.40;;
6095;SDS011;25081;42.698;23.298;2023-05-23T08:33:38;28.87;;;19.27;;
6095;SDS011;25081;42.698;23.298;2023-05-23T08:35:49;26.80;;;19.67;;
6095;SDS011;25081;42.698;23.298;2023-05-23T08:37:59;25.20;;;18.20;;
6095;SDS011;25081;42.698;23.298;2023-05-23T08:40:11;26.80;;;19.50;;
6095;SDS011;25081;42.698;23.298;2023-05-23T08:42:22;28.40;;;17.70;;
6095;SDS011;25081;42.698;23.298;2023-05-23T08:44:32;22.53;;;17.50;;
6095;SDS011;25081;42.698;23.298;2023-05-23T08:46:44;23.60;;;17.30;;
6095;SDS011;25081;42.698;23.298;2023-05-23T08:48:54;18.67;;;15.37;;
6095;SDS011;25081;42.698;23.298;2023-05-23T08:51:05;22.97;;;16.80;;
6095;SDS011;25081;42.698;23.298;2023-05-23T08:53:16;27.33;;;16.93;;
6095;SDS011;25081;42.698;23.298;2023-05-23T08:55:28;23.60;;;15.63;;
6095;SDS011;25081;42.698;23.298;2023-05-23T08:57:38;19.77;;;15.60;;
6095;SDS011;25081;42.698;23.298;2023-05-23T08:59:49;23.00;;;14.10;;
6095;SDS011;25081;42.698;23.298;2023-05-23T09:02:00;20.83;;;12.90;;
6095;SDS011;25081;42.698;23.298;2023-05-23T09:04:10;21.13;;;13.97;;
6095;SDS011;25081;42.698;23.298;2023-05-23T09:06:21;21.73;;;13.40;;
6095;SDS011;25081;42.698;23.298;2023-05-23T09:08:31;14.87;;;11.30;;
6095;SDS011;25081;42.698;23.298;2023-05-23T09:10:42;19.00;;;12.10;;
6095;SDS011;25081;42.698;23.298;2023-05-23T09:12:52;12.87;;;7.70;;
6095;SDS011;25081;42.698;23.298;2023-05-23T09:15:03;8.33;;;5.90;;
6095;SDS011;25081;42.698;23.298;2023-05-23T09:17:15;10.77;;;7.77;;
6095;SDS011;25081;42.698;23.298;2023-05-23T09:19:27;10.53;;;8.50;;
6095;SDS011;25081;42.698;23.298;2023-05-23T09:21:38;10.77;;;7.27;;
6095;SDS011;25081;42.698;23.298;2023-05-23T09:23:50;11.50;;;7.37;;
6095;SDS011;25081;42.698;23.298;2023-05-23T09:26:02;9.90;;;5.10;;
6095;SDS011;25081;42.698;23.298;2023-05-23T09:28:12;9.37;;;4.80;;
6095;SDS011;25081;42.698;23.298;2023-05-23T09:30:23;6.50;;;4.80;;
6095;SDS011;25081;42.698;23.298;2023-05-23T09:32:33;7.67;;;4.73;;
6095;SDS011;25081;42.698;23.298;2023-05-23T09:34:53;7.80;;;5.60;;
6095;SDS011;25081;42.698;23.298;2023-05-23T09:37:08;7.07;;;6.00;;
6095;SDS011;25081;42.698;23.298;2023-05-23T09:39:21;8.80;;;4.60;;
6095;SDS011;25081;42.698;23.298;2023-05-23T09:41:33;14.20;;;5.00;;
6095;SDS011;25081;42.698;23.298;2023-05-23T09:43:49;5.47;;;3.83;;
6095;SDS011;25081;42.698;23.298;2023-05-23T09:46:03;6.00;;;4.37;;
6095;SDS011;25081;42.698;23.298;2023-05-23T09:48:13;7.17;;;5.23;;
6095;SDS011;25081;42.698;23.298;2023-05-23T09:50:24;13.70;;;6.73;;
6095;SDS011;25081;42.698;23.298;2023-05-23T09:52:36;6.97;;;4.57;;
6095;SDS011;25081;42.698;23.298;2023-05-23T09:54:46;6.90;;;5.80;;
6095;SDS011;25081;42.698;23.298;2023-05-23T09:56:57;6.23;;;4.57;;
6095;SDS011;25081;42.698;23.298;2023-05-23T09:59:07;6.43;;;4.93;;
6095;SDS011;25081;42.698;23.298;2023-05-23T10:01:18;7.00;;;4.70;;
6095;SDS011;25081;42.698;23.298;2023-05-23T10:03:30;5.07;;;2.53;;
6095;SDS011;25081;42.698;23.298;2023-05-23T10:05:44;5.90;;;3.90;;
6095;SDS011;25081;42.698;23.298;2023-05-23T10:07:54;4.60;;;3.80;;
6095;SDS011;25081;42.698;23.298;2023-05-23T10:10:06;5.70;;;4.50;;
6095;SDS011;25081;42.698;23.298;2023-05-23T10:15:01;6.93;;;4.27;;
6095;SDS011;25081;42.698;23.298;2023-05-23T10:17:11;8.80;;;4.73;;
6095;SDS011;25081;42.698;23.298;2023-05-23T10:19:22;6.30;;;4.50;;
6095;SDS011;25081;42.698;23.298;2023-05-23T10:21:34;6.20;;;3.60;;
6095;SDS011;25081;42.698;23.298;2023-05-23T10:23:44;9.90;;;4.10;;
6095;SDS011;25081;42.698;23.298;2023-05-23T10:25:54;9.73;;;4.63;;
6095;SDS011;25081;42.698;23.298;2023-05-23T10:28:05;6.00;;;4.60;;
6095;SDS011;25081;42.698;23.298;2023-05-23T10:30:15;7.60;;;4.67;;
6095;SDS011;25081;42.698;23.298;2023-05-23T10:32:26;4.50;;;3.57;;
6095;SDS011;25081;42.698;23.298;2023-05-23T10:34:39;6.20;;;3.73;;
6095;SDS011;25081;42.698;23.298;2023-05-23T10:36:50;7.17;;;4.43;;
6095;SDS011;25081;42.698;23.298;2023-05-23T10:39:03;10.40;;;4.57;;
6095;SDS011;25081;42.698;23.298;2023-05-23T10:41:15;4.87;;;3.20;;
6095;SDS011;25081;42.698;23.298;2023-05-23T10:43:26;5.50;;;4.20;;
6095;SDS011;25081;42.698;23.298;2023-05-23T10:45:39;4.80;;;3.70;;
6095;SDS011;25081;42.698;23.298;2023-05-23T10:47:52;4.70;;;3.77;;
6095;SDS011;25081;42.698;23.298;2023-05-23T10:50:04;6.47;;;3.70;;
6095;SDS011;25081;42.698;23.298;2023-05-23T10:52:15;6.30;;;3.80;;
6095;SDS011;25081;42.698;23.298;2023-05-23T10:54:26;6.83;;;4.47;;
6095;SDS011;25081;42.698;23.298;2023-05-23T10:56:36;4.50;;;3.60;;
6095;SDS011;25081;42.698;23.298;2023-05-23T10:58:49;6.73;;;4.00;;
6095;SDS011;25081;42.698;23.298;2023-05-23T11:01:00;6.83;;;3.40;;
6095;SDS011;25081;42.698;23.298;2023-05-23T11:03:09;7.07;;;4.77;;
6095;SDS011;25081;42.698;23.298;2023-05-23T11:05:21;6.57;;;3.77;;
6095;SDS011;25081;42.698;23.298;2023-05-23T11:07:32;8.63;;;3.30;;
6095;SDS011;25081;42.698;23.298;2023-05-23T11:12:12;6.90;;;3.67;;
6095;SDS011;25081;42.698;23.298;2023-05-23T11:14:31;5.20;;;3.83;;
6095;SDS011;25081;42.698;23.298;2023-05-23T11:16:44;4.97;;;3.87;;
6095;SDS011;25081;42.698;23.298;2023-05-23T11:21:35;8.90;;;3.83;;
6095;SDS011;25081;42.698;23.298;2023-05-23T11:23:46;5.10;;;4.03;;
6095;SDS011;25081;42.698;23.298;2023-05-23T11:25:56;7.40;;;3.50;;
6095;SDS011;25081;42.698;23.298;2023-05-23T11:28:07;6.60;;;4.43;;
6095;SDS011;25081;42.698;23.298;2023-05-23T11:30:17;7.30;;;3.80;;
6095;SDS011;25081;42.698;23.298;2023-05-23T11:32:28;5.87;;;3.67;;
6095;SDS011;25081;42.698;23.298;2023-05-23T11:34:39;5.77;;;3.50;;
6095;SDS011;25081;42.698;23.298;2023-05-23T11:36:52;6.20;;;4.07;;
6095;SDS011;25081;42.698;23.298;2023-05-23T11:39:03;6.33;;;3.50;;
6095;SDS011;25081;42.698;23.298;2023-05-23T11:41:13;5.60;;;3.77;;
6095;SDS011;25081;42.698;23.298;2023-05-23T11:43:24;6.37;;;4.23;;
6095;SDS011;25081;42.698;23.298;2023-05-23T11:45:35;7.72;;;3.90;;
6095;SDS011;25081;42.698;23.298;2023-05-23T11:47:45;8.77;;;4.00;;
6095;SDS011;25081;42.698;23.298;2023-05-23T11:49:56;6.30;;;3.67;;
6095;SDS011;25081;42.698;23.298;2023-05-23T11:52:06;5.57;;;4.40;;
6095;SDS011;25081;42.698;23.298;2023-05-23T11:54:17;5.53;;;4.33;;
6095;SDS011;25081;42.698;23.298;2023-05-23T11:56:27;8.53;;;4.20;;
6095;SDS011;25081;42.698;23.298;2023-05-23T11:58:38;5.63;;;4.10;;
6095;SDS011;25081;42.698;23.298;2023-05-23T12:00:48;5.50;;;3.80;;
6095;SDS011;25081;42.698;23.298;2023-05-23T12:02:59;4.17;;;3.77;;
6095;SDS011;25081;42.698;23.298;2023-05-23T12:05:11;6.10;;;3.73;;
6095;SDS011;25081;42.698;23.298;2023-05-23T12:07:22;11.47;;;3.87;;
6095;SDS011;25081;42.698;23.298;2023-05-23T12:09:33;7.13;;;4.30;;
6095;SDS011;25081;42.698;23.298;2023-05-23T12:11:50;4.23;;;3.83;;
6095;SDS011;25081;42.698;23.298;2023-05-23T12:14:01;5.53;;;3.93;;
6095;SDS011;25081;42.698;23.298;2023-05-23T12:16:13;6.23;;;4.37;;
6095;SDS011;25081;42.698;23.298;2023-05-23T12:18:24;6.10;;;4.07;;
6095;SDS011;25081;42.698;23.298;2023-05-23T12:20:34;7.00;;;4.00;;
6095;SDS011;25081;42.698;23.298;2023-05-23T12:22:44;6.70;;;4.00;;
6095;SDS011;25081;42.698;23.298;2023-05-23T12:24:55;5.40;;;3.40;;
6095;SDS011;25081;42.698;23.298;2023-05-23T12:27:06;5.60;;;4.30;;
6095;SDS011;25081;42.698;23.298;2023-05-23T12:29:18;4.80;;;3.90;;
6095;SDS011;25081;42.698;23.298;2023-05-23T12:31:29;5.90;;;3.93;;
6095;SDS011;25081;42.698;23.298;2023-05-23T12:33:39;4.43;;;3.93;;
6095;SDS011;25081;42.698;23.298;2023-05-23T12:35:50;4.23;;;3.40;;
6095;SDS011;25081;42.698;23.298;2023-05-23T12:38:01;4.00;;;3.43;;
6095;SDS011;25081;42.698;23.298;2023-05-23T12:40:13;8.00;;;4.23;;
6095;SDS011;25081;42.698;23.298;2023-05-23T12:42:23;8.13;;;4.77;;
6095;SDS011;25081;42.698;23.298;2023-05-23T12:44:34;6.33;;;4.23;;
6095;SDS011;25081;42.698;23.298;2023-05-23T12:46:44;4.80;;;3.77;;
6095;SDS011;25081;42.698;23.298;2023-05-23T12:48:55;6.73;;;3.97;;
6095;SDS011;25081;42.698;23.298;2023-05-23T12:51:05;5.83;;;3.50;;
6095;SDS011;25081;42.698;23.298;2023-05-23T12:53:16;6.93;;;4.07;;
6095;SDS011;25081;42.698;23.298;2023-05-23T12:55:26;6.67;;;3.53;;
6095;SDS011;25081;42.698;23.298;2023-05-23T12:57:37;3.63;;;3.00;;
6095;SDS011;25081;42.698;23.298;2023-05-23T12:59:47;6.07;;;3.70;;
6095;SDS011;25081;42.698;23.298;2023-05-23T13:01:58;5.00;;;3.90;;